Time;durP1;ratioP1;P1;durP2;ratioP2;P2;SDS_P1;SDS_P2;PMS_P1;PMS_P2;Temp;Humidity;BMP_temperature;BMP_pressure;BME280_temperature;BME280_humidity;BME280_pressure;Samples;Min_cycle;Max_cycle;Signal;HPM_P1;HPM_P2
2024/01/07 00:00:39;;;;;;;382.95;221.18;;;;;;;;;;5047290;28;20025;-86
2024/01/07 00:03:04;;;;;;;368.30;214.05;;;;;;;;;;5044385;28;20049;-86
2024/01/07 00:05:29;;;;;;;389.40;216.77;;;;;;;;;;5045077;28;20104;-86
2024/01/07 00:07:55;;;;;;;393.65;227.82;;;;;;;;;;5043647;28;20050;-86
2024/01/07 00:10:20;;;;;;;371.83;215.00;;;;;;;;;;5045981;28;20067;-85
2024/01/07 00:12:45;;;;;;;390.08;228.80;;;;;;;;;;5041488;28;20119;-85
2024/01/07 00:15:11;;;;;;;413.30;233.00;;;;;;;;;;5042634;28;20025;-86
2024/01/07 00:17:36;;;;;;;359.20;204.65;;;;;;;;;;5042045;28;20139;-85
2024/01/07 00:20:01;;;;;;;365.10;205.85;;;;;;;;;;5043866;28;20081;-85
2024/01/07 00:22:27;;;;;;;365.70;208.10;;;;;;;;;;5041955;28;20529;-86
2024/01/07 00:24:52;;;;;;;428.55;231.48;;;;;;;;;;5043126;28;20159;-83
2024/01/07 00:27:17;;;;;;;360.83;195.48;;;;;;;;;;5036927;28;20029;-86
2024/01/07 00:29:42;;;;;;;308.58;176.15;;;;;;;;;;5043726;28;20031;-85
2024/01/07 00:32:08;;;;;;;253.88;146.68;;;;;;;;;;5041846;28;20029;-85
2024/01/07 00:34:33;;;;;;;222.23;130.32;;;;;;;;;;5041592;28;20033;-86
2024/01/07 00:36:58;;;;;;;229.68;135.45;;;;;;;;;;5042116;28;20643;-86
2024/01/07 00:39:25;;;;;;;228.00;136.43;;;;;;;;;;5040067;28;20078;-85
2024/01/07 00:41:50;;;;;;;240.43;140.32;;;;;;;;;;5041959;28;20048;-86
2024/01/07 00:44:16;;;;;;;253.77;147.98;;;;;;;;;;5039997;28;20498;-85
2024/01/07 00:46:41;;;;;;;249.85;146.02;;;;;;;;;;5042144;28;20021;-85
2024/01/07 00:49:06;;;;;;;231.98;135.57;;;;;;;;;;5040225;28;20037;-84
2024/01/07 00:51:32;;;;;;;214.70;127.88;;;;;;;;;;5038466;28;20029;-84
2024/01/07 00:53:57;;;;;;;262.40;150.40;;;;;;;;;;5042536;28;20108;-85
2024/01/07 00:56:25;;;;;;;301.90;182.40;;;;;;;;;;5045511;28;20039;-84
2024/01/07 00:58:50;;;;;;;252.73;143.63;;;;;;;;;;5040666;28;20021;-85
2024/01/07 01:01:15;;;;;;;225.05;128.38;;;;;;;;;;5042493;28;20036;-86
2024/01/07 01:03:41;;;;;;;265.23;142.15;;;;;;;;;;5045888;28;20025;-86
2024/01/07 01:06:06;;;;;;;233.38;134.45;;;;;;;;;;5044702;28;20522;-86
2024/01/07 01:08:31;;;;;;;222.00;126.97;;;;;;;;;;5044200;28;20037;-86
2024/01/07 01:10:57;;;;;;;236.30;129.82;;;;;;;;;;5028295;28;20519;-86
2024/01/07 01:13:22;;;;;;;232.88;133.82;;;;;;;;;;5044949;28;20025;-86
2024/01/07 01:15:47;;;;;;;212.43;124.47;;;;;;;;;;5044062;28;20414;-85
2024/01/07 01:18:12;;;;;;;253.48;139.10;;;;;;;;;;5044615;28;20029;-86
2024/01/07 01:20:38;;;;;;;267.02;157.27;;;;;;;;;;5031742;28;20037;-86
2024/01/07 01:23:03;;;;;;;237.73;135.75;;;;;;;;;;5031101;28;20071;-86
2024/01/07 01:25:29;;;;;;;267.23;151.27;;;;;;;;;;5043519;28;20040;-85
2024/01/07 01:27:55;;;;;;;210.27;121.35;;;;;;;;;;5027100;28;20517;-85
2024/01/07 01:30:21;;;;;;;230.93;127.65;;;;;;;;;;5044276;28;20124;-86
2024/01/07 01:32:46;;;;;;;208.93;126.97;;;;;;;;;;5044245;28;20115;-86
2024/01/07 01:35:11;;;;;;;191.00;110.22;;;;;;;;;;5030125;28;20028;-85
2024/01/07 01:37:37;;;;;;;153.25;89.57;;;;;;;;;;5030937;28;20398;-86
2024/01/07 01:40:04;;;;;;;160.05;92.57;;;;;;;;;;5025803;28;20025;-86
2024/01/07 01:42:29;;;;;;;207.30;117.38;;;;;;;;;;5025301;28;20029;-85
2024/01/07 01:44:59;;;;;;;217.25;122.68;;;;;;;;;;5027081;28;20017;-86
2024/01/07 01:47:24;;;;;;;189.07;109.97;;;;;;;;;;5021696;28;20044;-85
2024/01/07 01:49:50;;;;;;;228.75;131.52;;;;;;;;;;5016658;28;20668;-85
2024/01/07 01:52:15;;;;;;;218.90;121.05;;;;;;;;;;5019636;28;20033;-85
2024/01/07 01:54:40;;;;;;;210.90;119.40;;;;;;;;;;5019340;28;20611;-86
2024/01/07 01:57:06;;;;;;;199.25;115.75;;;;;;;;;;5024479;28;20598;-85
2024/01/07 01:59:32;;;;;;;192.25;112.30;;;;;;;;;;5019439;28;20026;-85
2024/01/07 02:01:57;;;;;;;226.07;125.50;;;;;;;;;;5023264;28;20029;-85
2024/01/07 02:04:23;;;;;;;197.52;111.90;;;;;;;;;;5025574;28;20111;-85
2024/01/07 02:06:48;;;;;;;193.48;109.57;;;;;;;;;;5026962;28;20639;-86
2024/01/07 02:09:13;;;;;;;186.27;112.95;;;;;;;;;;5025012;28;20084;-85
2024/01/07 02:11:39;;;;;;;166.23;95.32;;;;;;;;;;5025634;28;20022;-84
2024/01/07 02:14:04;;;;;;;148.57;91.97;;;;;;;;;;5024483;28;20029;-84
2024/01/07 02:16:29;;;;;;;148.77;85.65;;;;;;;;;;5035015;28;20045;-86
2024/01/07 02:18:55;;;;;;;136.85;83.85;;;;;;;;;;5045246;28;20031;-86
2024/01/07 02:21:20;;;;;;;153.00;89.35;;;;;;;;;;5045677;28;20120;-85
2024/01/07 02:23:45;;;;;;;134.57;83.22;;;;;;;;;;5044013;28;20016;-86
2024/01/07 02:26:11;;;;;;;139.60;85.55;;;;;;;;;;5046150;28;20036;-85
2024/01/07 02:28:36;;;;;;;143.55;85.38;;;;;;;;;;5045558;28;20139;-85
2024/01/07 02:31:01;;;;;;;152.35;89.32;;;;;;;;;;5040324;28;20028;-84
2024/01/07 02:33:27;;;;;;;156.65;95.88;;;;;;;;;;5037877;28;20398;-86
2024/01/07 02:35:53;;;;;;;158.88;93.55;;;;;;;;;;5038563;28;20028;-84
2024/01/07 02:38:18;;;;;;;168.02;99.20;;;;;;;;;;5039060;28;20021;-86
2024/01/07 02:40:45;;;;;;;171.90;94.63;;;;;;;;;;5038831;28;20047;-85
2024/01/07 02:43:10;;;;;;;161.02;91.97;;;;;;;;;;5035033;28;20017;-85
2024/01/07 02:45:35;;;;;;;160.15;92.78;;;;;;;;;;5040072;28;20513;-83
2024/01/07 02:48:01;;;;;;;178.10;101.30;;;;;;;;;;5038979;28;20025;-83
2024/01/07 02:50:26;;;;;;;174.63;102.13;;;;;;;;;;5039667;28;20082;-85
2024/01/07 02:52:51;;;;;;;169.65;102.72;;;;;;;;;;5038881;28;20574;-86
2024/01/07 02:55:17;;;;;;;196.82;109.68;;;;;;;;;;5038901;28;20024;-85
2024/01/07 02:57:42;;;;;;;191.77;109.72;;;;;;;;;;5039391;28;20051;-85
2024/01/07 03:00:07;;;;;;;234.35;139.23;;;;;;;;;;5042422;28;20029;-84
2024/01/07 03:02:33;;;;;;;199.38;114.40;;;;;;;;;;5043979;28;20021;-85
2024/01/07 03:04:58;;;;;;;200.27;120.65;;;;;;;;;;5048148;28;20487;-86
2024/01/07 03:07:24;;;;;;;197.75;116.85;;;;;;;;;;5048195;28;20033;-86
2024/01/07 03:09:50;;;;;;;183.98;111.05;;;;;;;;;;5047712;28;20147;-86
2024/01/07 03:12:15;;;;;;;218.02;128.75;;;;;;;;;;5048598;28;20025;-85
2024/01/07 03:14:41;;;;;;;293.00;143.10;;;;;;;;;;5049952;28;20386;-85
2024/01/07 03:17:07;;;;;;;184.32;109.32;;;;;;;;;;5046355;28;20037;-85
2024/01/07 03:19:32;;;;;;;216.95;134.55;;;;;;;;;;5041457;28;20029;-84
2024/01/07 03:21:58;;;;;;;199.95;112.22;;;;;;;;;;5044285;28;20047;-86
2024/01/07 03:24:23;;;;;;;176.27;102.20;;;;;;;;;;5048074;28;20100;-86
2024/01/07 03:26:48;;;;;;;163.25;98.13;;;;;;;;;;5047810;28;20167;-86
2024/01/07 03:29:13;;;;;;;153.75;90.47;;;;;;;;;;5048817;28;20112;-85
2024/01/07 03:31:39;;;;;;;157.70;94.00;;;;;;;;;;5044367;28;20063;-85
2024/01/07 03:34:04;;;;;;;148.15;90.97;;;;;;;;;;5040953;28;20644;-85
2024/01/07 03:36:29;;;;;;;149.05;86.70;;;;;;;;;;5042905;28;20066;-86
2024/01/07 03:38:55;;;;;;;152.32;90.53;;;;;;;;;;5039446;28;20086;-85
2024/01/07 03:41:20;;;;;;;157.27;92.63;;;;;;;;;;5046227;28;20029;-84
2024/01/07 03:43:46;;;;;;;115.47;70.88;;;;;;;;;;5046753;28;20021;-86
2024/01/07 03:46:11;;;;;;;131.98;79.68;;;;;;;;;;5047868;28;20040;-86
2024/01/07 03:48:37;;;;;;;108.63;65.30;;;;;;;;;;5047271;28;20383;-86
2024/01/07 03:51:02;;;;;;;69.18;44.47;;;;;;;;;;5047466;28;20079;-86
2024/01/07 03:53:27;;;;;;;67.85;43.42;;;;;;;;;;5047621;28;20565;-87
2024/01/07 03:55:53;;;;;;;66.85;40.60;;;;;;;;;;5049079;28;20025;-86
2024/01/07 03:58:18;;;;;;;82.90;45.58;;;;;;;;;;5048182;28;20021;-86
2024/01/07 04:00:43;;;;;;;186.32;76.80;;;;;;;;;;5048627;28;20036;-86
2024/01/07 04:03:09;;;;;;;76.65;46.88;;;;;;;;;;5048306;28;20025;-87
2024/01/07 04:05:37;;;;;;;131.45;94.93;;;;;;;;;;5047516;28;20341;-85
2024/01/07 04:08:03;;;;;;;216.57;128.50;;;;;;;;;;5046984;28;20047;-85
2024/01/07 04:10:28;;;;;;;147.30;80.97;;;;;;;;;;5046403;28;20324;-86
2024/01/07 04:12:54;;;;;;;187.98;103.95;;;;;;;;;;5048197;28;20461;-86
2024/01/07 04:15:20;;;;;;;182.00;97.00;;;;;;;;;;5048140;28;20021;-86
2024/01/07 04:17:45;;;;;;;160.88;86.95;;;;;;;;;;5046508;28;20045;-86
2024/01/07 04:20:14;;;;;;;143.15;78.55;;;;;;;;;;5046340;28;20017;-86
2024/01/07 04:22:39;;;;;;;245.23;112.80;;;;;;;;;;5044692;28;20025;-86
2024/01/07 04:25:08;;;;;;;92.53;51.58;;;;;;;;;;5042488;28;20040;-85
2024/01/07 04:27:33;;;;;;;287.75;124.82;;;;;;;;;;5026871;28;20016;-85
2024/01/07 04:29:58;;;;;;;86.15;50.97;;;;;;;;;;5042752;28;20570;-86
2024/01/07 04:32:24;;;;;;;271.05;116.80;;;;;;;;;;5040654;28;20126;-85
2024/01/07 04:34:49;;;;;;;510.92;228.60;;;;;;;;;;5042020;28;20111;-86
2024/01/07 04:37:14;;;;;;;276.63;124.05;;;;;;;;;;5045932;28;20036;-86
2024/01/07 04:39:40;;;;;;;85.43;50.42;;;;;;;;;;5044478;28;20548;-86
2024/01/07 04:42:05;;;;;;;90.32;52.97;;;;;;;;;;5047387;28;20124;-86
2024/01/07 04:44:30;;;;;;;101.55;58.92;;;;;;;;;;5045836;28;20032;-85
2024/01/07 04:46:56;;;;;;;219.18;103.13;;;;;;;;;;5047164;28;20041;-86
2024/01/07 04:49:21;;;;;;;140.77;75.38;;;;;;;;;;5045816;28;20021;-86
2024/01/07 04:51:46;;;;;;;120.13;68.72;;;;;;;;;;5046650;28;20106;-86
2024/01/07 04:54:12;;;;;;;105.80;61.35;;;;;;;;;;5045815;28;20013;-86
2024/01/07 04:56:37;;;;;;;93.82;56.10;;;;;;;;;;5047495;28;20021;-86
2024/01/07 04:59:02;;;;;;;78.15;52.35;;;;;;;;;;5047452;28;20021;-86
2024/01/07 05:01:28;;;;;;;80.75;51.60;;;;;;;;;;5046067;28;20025;-86
2024/01/07 05:03:53;;;;;;;86.82;52.10;;;;;;;;;;5046535;28;20538;-86
2024/01/07 05:06:18;;;;;;;89.78;53.58;;;;;;;;;;5045645;28;20039;-86
2024/01/07 05:08:43;;;;;;;81.72;50.53;;;;;;;;;;5046504;28;20032;-86
2024/01/07 05:11:09;;;;;;;93.72;54.70;;;;;;;;;;5046901;28;20079;-86
2024/01/07 05:13:37;;;;;;;103.03;63.38;;;;;;;;;;5046984;28;20140;-86
2024/01/07 05:16:03;;;;;;;93.93;57.13;;;;;;;;;;5045593;28;20051;-86
2024/01/07 05:18:28;;;;;;;81.68;50.50;;;;;;;;;;5046731;28;20345;-85
2024/01/07 05:20:53;;;;;;;82.40;52.58;;;;;;;;;;5044877;28;20544;-84
2024/01/07 05:23:18;;;;;;;79.53;50.22;;;;;;;;;;5044983;28;20070;-86
2024/01/07 05:25:44;;;;;;;83.55;53.88;;;;;;;;;;5037974;28;20017;-86
2024/01/07 05:28:10;;;;;;;191.85;95.97;;;;;;;;;;5041071;28;20016;-87
2024/01/07 05:30:35;;;;;;;163.85;84.25;;;;;;;;;;5039260;28;20021;-85
2024/01/07 05:33:00;;;;;;;240.68;113.60;;;;;;;;;;5039886;28;20119;-86
2024/01/07 05:35:26;;;;;;;214.52;107.40;;;;;;;;;;5044204;28;20055;-85
2024/01/07 05:37:51;;;;;;;166.05;87.30;;;;;;;;;;5039712;28;20021;-86
2024/01/07 05:40:16;;;;;;;362.30;180.20;;;;;;;;;;5042693;28;20020;-86
2024/01/07 05:42:41;;;;;;;271.25;152.02;;;;;;;;;;5042519;28;20016;-84
2024/01/07 05:45:07;;;;;;;290.67;154.13;;;;;;;;;;5042337;28;20028;-86
2024/01/07 05:47:32;;;;;;;162.55;94.45;;;;;;;;;;5042401;28;20017;-85
2024/01/07 05:49:57;;;;;;;154.65;88.30;;;;;;;;;;5042434;28;20024;-86
2024/01/07 05:52:23;;;;;;;110.72;68.22;;;;;;;;;;5041171;28;20029;-84
2024/01/07 05:54:48;;;;;;;98.85;56.33;;;;;;;;;;5041364;28;20028;-85
2024/01/07 05:57:13;;;;;;;218.07;96.80;;;;;;;;;;5042821;28;20077;-85
2024/01/07 05:59:39;;;;;;;110.93;63.85;;;;;;;;;;5039820;28;20430;-87
2024/01/07 06:02:04;;;;;;;75.20;46.50;;;;;;;;;;5042567;28;20020;-85
2024/01/07 06:04:29;;;;;;;115.40;57.65;;;;;;;;;;5040989;28;20031;-86
2024/01/07 06:06:55;;;;;;;220.70;108.03;;;;;;;;;;5040595;28;20024;-86
2024/01/07 06:09:20;;;;;;;395.23;163.85;;;;;;;;;;5039565;28;20028;-86
2024/01/07 06:11:46;;;;;;;315.58;132.55;;;;;;;;;;5040637;28;20040;-85
2024/01/07 06:14:11;;;;;;;428.02;180.55;;;;;;;;;;5040035;28;20021;-85
2024/01/07 06:16:37;;;;;;;147.38;78.78;;;;;;;;;;5039949;28;20048;-83
2024/01/07 06:19:02;;;;;;;513.47;236.77;;;;;;;;;;5033540;28;20579;-85
2024/01/07 06:21:28;;;;;;;330.45;142.73;;;;;;;;;;5039942;28;20128;-85
2024/01/07 06:23:53;;;;;;;296.27;131.45;;;;;;;;;;5041217;28;20597;-85
2024/01/07 06:26:19;;;;;;;314.15;135.45;;;;;;;;;;5038389;28;20640;-86
2024/01/07 06:28:45;;;;;;;187.73;101.60;;;;;;;;;;5040622;28;20021;-86
2024/01/07 06:31:10;;;;;;;183.80;97.88;;;;;;;;;;5038154;28;20650;-86
2024/01/07 06:33:35;;;;;;;159.35;92.88;;;;;;;;;;5038763;28;20020;-86
2024/01/07 06:36:00;;;;;;;137.75;88.30;;;;;;;;;;5041388;28;20025;-86
2024/01/07 06:38:27;;;;;;;146.50;93.85;;;;;;;;;;5045804;28;20016;-86
2024/01/07 06:40:54;;;;;;;126.07;74.40;;;;;;;;;;5040696;28;20116;-86
2024/01/07 06:43:20;;;;;;;136.82;83.60;;;;;;;;;;5043987;28;20017;-86
2024/01/07 06:45:45;;;;;;;170.82;105.15;;;;;;;;;;5042673;28;20013;-86
2024/01/07 06:48:10;;;;;;;182.77;104.57;;;;;;;;;;5043472;28;20020;-85
2024/01/07 06:50:36;;;;;;;294.17;155.20;;;;;;;;;;5044179;28;20327;-87
2024/01/07 06:53:01;;;;;;;490.92;259.08;;;;;;;;;;5042400;28;20017;-86
2024/01/07 06:55:26;;;;;;;191.85;115.93;;;;;;;;;;5040988;28;20021;-87
2024/01/07 06:57:52;;;;;;;204.38;122.20;;;;;;;;;;5042616;28;20392;-86
2024/01/07 07:00:17;;;;;;;299.10;155.32;;;;;;;;;;5041269;28;20017;-85
2024/01/07 07:02:43;;;;;;;235.23;130.32;;;;;;;;;;5043271;28;20017;-87
2024/01/07 07:05:08;;;;;;;219.32;129.48;;;;;;;;;;5048292;28;20113;-87
2024/01/07 07:07:34;;;;;;;228.45;128.80;;;;;;;;;;5050504;28;20265;-87
2024/01/07 07:10:00;;;;;;;234.95;139.65;;;;;;;;;;5050028;28;20087;-85
2024/01/07 07:12:26;;;;;;;257.20;147.30;;;;;;;;;;5048440;28;20490;-86
2024/01/07 07:14:51;;;;;;;266.48;152.48;;;;;;;;;;5047862;28;20020;-86
2024/01/07 07:17:16;;;;;;;251.70;144.57;;;;;;;;;;5049388;28;20040;-87
2024/01/07 07:19:42;;;;;;;263.45;147.38;;;;;;;;;;5044437;28;20036;-85
2024/01/07 07:22:07;;;;;;;212.50;125.18;;;;;;;;;;5048485;28;20467;-84
2024/01/07 07:24:32;;;;;;;236.40;137.18;;;;;;;;;;5047822;28;20067;-85
2024/01/07 07:26:58;;;;;;;223.55;134.73;;;;;;;;;;5045697;28;20426;-85
2024/01/07 07:29:24;;;;;;;250.73;147.77;;;;;;;;;;5048912;28;20075;-85
2024/01/07 07:31:49;;;;;;;227.77;141.80;;;;;;;;;;5043534;28;20028;-85
2024/01/07 07:34:14;;;;;;;221.68;137.10;;;;;;;;;;5047677;28;20390;-85
2024/01/07 07:36:41;;;;;;;157.35;97.32;;;;;;;;;;5046695;28;20063;-86
2024/01/07 07:39:06;;;;;;;171.63;104.70;;;;;;;;;;5048417;28;20479;-86
2024/01/07 07:41:32;;;;;;;200.10;112.50;;;;;;;;;;5049277;28;20044;-84
2024/01/07 07:43:58;;;;;;;201.60;118.03;;;;;;;;;;5048505;28;20092;-85
2024/01/07 07:46:23;;;;;;;201.93;113.13;;;;;;;;;;5046732;28;20120;-85
2024/01/07 07:48:48;;;;;;;272.60;148.85;;;;;;;;;;5044379;28;20025;-85
2024/01/07 07:51:14;;;;;;;298.58;174.88;;;;;;;;;;5043465;28;20303;-85
2024/01/07 07:53:39;;;;;;;199.23;124.55;;;;;;;;;;5046290;28;20024;-86
2024/01/07 07:56:05;;;;;;;188.48;116.45;;;;;;;;;;5043111;28;20029;-85
2024/01/07 07:58:30;;;;;;;176.07;112.28;;;;;;;;;;5048539;28;20024;-87
2024/01/07 08:00:57;;;;;;;198.60;119.53;;;;;;;;;;5048153;28;20027;-87
2024/01/07 08:03:22;;;;;;;194.50;119.72;;;;;;;;;;5048383;28;20069;-87
2024/01/07 08:05:47;;;;;;;364.00;187.25;;;;;;;;;;5047169;28;20056;-86
2024/01/07 08:08:13;;;;;;;251.57;154.80;;;;;;;;;;5048064;28;20056;-86
2024/01/07 08:10:38;;;;;;;233.32;143.45;;;;;;;;;;5045899;28;20445;-84
2024/01/07 08:13:04;;;;;;;222.13;137.32;;;;;;;;;;5050314;28;20407;-86
2024/01/07 08:15:29;;;;;;;206.48;128.45;;;;;;;;;;5045429;28;20117;-86
2024/01/07 08:17:55;;;;;;;199.75;118.53;;;;;;;;;;5044897;28;20183;-83
2024/01/07 08:20:20;;;;;;;196.43;120.40;;;;;;;;;;5048520;28;20036;-85
2024/01/07 08:22:45;;;;;;;178.70;108.75;;;;;;;;;;5045987;28;20017;-87
2024/01/07 08:25:11;;;;;;;183.02;112.45;;;;;;;;;;5047458;28;20021;-85
2024/01/07 08:27:37;;;;;;;195.27;115.57;;;;;;;;;;5048029;28;20138;-87
2024/01/07 08:30:02;;;;;;;186.57;110.05;;;;;;;;;;5048784;28;20416;-87
2024/01/07 08:32:29;;;;;;;187.82;115.35;;;;;;;;;;5038331;28;20519;-87
2024/01/07 08:34:55;;;;;;;183.13;111.38;;;;;;;;;;5045500;28;20051;-85
2024/01/07 08:37:20;;;;;;;175.35;108.32;;;;;;;;;;5042669;28;20025;-86
2024/01/07 08:39:46;;;;;;;162.73;98.05;;;;;;;;;;5021883;28;20612;-86
2024/01/07 08:42:11;;;;;;;157.32;95.50;;;;;;;;;;5042757;28;20760;-86
2024/01/07 08:44:36;;;;;;;143.40;88.97;;;;;;;;;;5042426;28;20091;-87
2024/01/07 08:47:02;;;;;;;164.55;100.38;;;;;;;;;;5043911;28;20029;-85
2024/01/07 08:49:30;;;;;;;161.98;98.25;;;;;;;;;;5041622;28;20587;-87
2024/01/07 08:51:56;;;;;;;199.93;124.53;;;;;;;;;;5040024;28;20032;-87
2024/01/07 08:54:21;;;;;;;165.20;104.70;;;;;;;;;;5040433;28;20029;-87
2024/01/07 08:56:47;;;;;;;198.10;120.32;;;;;;;;;;5041251;28;20482;-84
2024/01/07 08:59:12;;;;;;;176.02;110.22;;;;;;;;;;5039088;28;20067;-86
2024/01/07 09:01:38;;;;;;;167.10;104.15;;;;;;;;;;5043056;28;20051;-87
2024/01/07 09:04:03;;;;;;;189.45;116.53;;;;;;;;;;5022486;28;20513;-87
2024/01/07 09:06:28;;;;;;;171.40;111.45;;;;;;;;;;5043442;28;20039;-87
2024/01/07 09:08:54;;;;;;;179.98;118.32;;;;;;;;;;5045698;28;20147;-87
2024/01/07 09:11:19;;;;;;;158.32;106.68;;;;;;;;;;5045638;28;20036;-88
2024/01/07 09:13:48;;;;;;;184.77;119.20;;;;;;;;;;5045875;28;20021;-87
2024/01/07 09:16:13;;;;;;;150.63;98.17;;;;;;;;;;5045504;28;20067;-87
2024/01/07 09:18:39;;;;;;;114.82;77.05;;;;;;;;;;5024969;28;20022;-88
2024/01/07 09:21:04;;;;;;;112.35;75.63;;;;;;;;;;5045026;28;20070;-87
2024/01/07 09:23:30;;;;;;;127.07;84.50;;;;;;;;;;5045479;28;20027;-86
2024/01/07 09:25:55;;;;;;;131.25;88.53;;;;;;;;;;5045740;28;20021;-87
2024/01/07 09:28:20;;;;;;;128.80;84.88;;;;;;;;;;5044988;28;20036;-86
2024/01/07 09:30:46;;;;;;;80.78;55.35;;;;;;;;;;5045045;28;20031;-85
2024/01/07 09:33:11;;;;;;;100.10;65.18;;;;;;;;;;5044457;28;20394;-86
2024/01/07 09:35:36;;;;;;;143.60;92.40;;;;;;;;;;5046646;28;20040;-86
2024/01/07 09:38:02;;;;;;;138.48;90.50;;;;;;;;;;5041623;28;20063;-84
2024/01/07 09:40:27;;;;;;;109.57;69.20;;;;;;;;;;5044964;28;20453;-87
2024/01/07 09:42:52;;;;;;;109.20;72.40;;;;;;;;;;5046523;28;20124;-87
2024/01/07 09:45:18;;;;;;;98.22;65.20;;;;;;;;;;5047276;28;20525;-86
2024/01/07 09:47:45;;;;;;;110.38;68.07;;;;;;;;;;5045325;28;20017;-86
2024/01/07 09:50:11;;;;;;;99.43;62.00;;;;;;;;;;5042185;28;20124;-86
2024/01/07 09:52:38;;;;;;;126.65;66.95;;;;;;;;;;5045858;28;20108;-87
2024/01/07 09:55:03;;;;;;;225.93;100.80;;;;;;;;;;5041182;28;20486;-86
2024/01/07 09:57:29;;;;;;;117.78;68.82;;;;;;;;;;5036537;28;20069;-85
2024/01/07 09:59:55;;;;;;;102.45;64.28;;;;;;;;;;5042308;28;20024;-87
2024/01/07 10:02:23;;;;;;;70.82;47.40;;;;;;;;;;5000534;28;20038;-86
2024/01/07 10:04:50;;;;;;;101.13;62.70;;;;;;;;;;5000804;28;20478;-84
2024/01/07 10:07:16;;;;;;;81.70;53.45;;;;;;;;;;4984500;28;20098;-86
2024/01/07 10:09:44;;;;;;;77.43;50.83;;;;;;;;;;4981400;28;20460;-87
2024/01/07 10:12:09;;;;;;;100.53;59.90;;;;;;;;;;4985241;28;20034;-86
2024/01/07 10:14:35;;;;;;;75.28;48.78;;;;;;;;;;4995025;28;20022;-86
2024/01/07 10:17:00;;;;;;;95.30;59.08;;;;;;;;;;4986665;28;20521;-86
2024/01/07 10:19:27;;;;;;;77.00;48.63;;;;;;;;;;4986624;28;20612;-86
2024/01/07 10:22:01;;;;;;;83.68;57.05;;;;;;;;;;4986490;28;20037;-86
2024/01/07 10:24:31;;;;;;;131.85;85.47;;;;;;;;;;4986577;28;20030;-85
2024/01/07 10:26:56;;;;;;;111.57;81.65;;;;;;;;;;4983579;28;20030;-86
2024/01/07 10:29:21;;;;;;;264.95;134.75;;;;;;;;;;4987772;28;20040;-85
2024/01/07 10:31:47;;;;;;;278.80;138.80;;;;;;;;;;4985078;28;20758;-83
2024/01/07 10:34:13;;;;;;;324.75;168.88;;;;;;;;;;5036442;28;20037;-87
2024/01/07 10:36:39;;;;;;;163.60;109.07;;;;;;;;;;5045436;28;20475;-85
2024/01/07 10:39:05;;;;;;;215.05;143.50;;;;;;;;;;5041007;28;20451;-86
2024/01/07 10:41:31;;;;;;;371.85;217.18;;;;;;;;;;5045576;28;20047;-87
2024/01/07 10:43:57;;;;;;;306.67;205.68;;;;;;;;;;5016841;28;20036;-86
2024/01/07 10:46:22;;;;;;;295.52;196.50;;;;;;;;;;5043890;28;20394;-86
2024/01/07 10:48:53;;;;;;;320.35;212.77;;;;;;;;;;5047807;28;20028;-86
2024/01/07 10:51:20;;;;;;;392.80;230.50;;;;;;;;;;5035021;28;20023;-84
2024/01/07 10:53:55;;;;;;;616.10;339.77;;;;;;;;;;5045958;28;20021;-87
2024/01/07 10:56:24;;;;;;;294.58;189.27;;;;;;;;;;5044685;28;20028;-85
2024/01/07 10:58:54;;;;;;;340.08;220.43;;;;;;;;;;5045641;28;20025;-86
2024/01/07 11:01:19;;;;;;;285.08;180.55;;;;;;;;;;5044179;28;20025;-85
2024/01/07 11:03:45;;;;;;;305.75;205.35;;;;;;;;;;5045364;28;20074;-86
2024/01/07 11:06:29;;;;;;;305.23;194.15;;;;;;;;;;5045074;28;20016;-86
2024/01/07 11:08:58;;;;;;;297.45;186.20;;;;;;;;;;5046677;28;20066;-85
2024/01/07 11:11:23;;;;;;;;;;;;;;;;;;5044228;28;20432;-86
2024/01/07 11:13:49;;;;;;;299.95;192.15;;;;;;;;;;5045654;28;19964;-87
2024/01/07 11:16:34;;;;;;;353.02;214.43;;;;;;;;;;5046268;28;20423;-86
2024/01/07 11:19:01;;;;;;;444.98;265.48;;;;;;;;;;5043591;28;20025;-85
2024/01/07 11:21:26;;;;;;;391.58;240.82;;;;;;;;;;5049163;28;20108;-86
2024/01/07 11:23:53;;;;;;;318.67;212.52;;;;;;;;;;5047329;28;20103;-85
2024/01/07 11:26:18;;;;;;;351.70;207.15;;;;;;;;;;5051184;28;20078;-86
2024/01/07 11:28:50;;;;;;;335.10;209.88;;;;;;;;;;5052142;28;20021;-87
2024/01/07 11:31:17;;;;;;;397.50;246.52;;;;;;;;;;5040524;28;20024;-86
2024/01/07 11:33:46;;;;;;;228.45;149.70;;;;;;;;;;5051291;28;20017;-86
2024/01/07 11:36:11;;;;;;;;;;;;;;;;;;5049585;28;20112;-87
2024/01/07 11:38:38;;;;;;;316.90;203.10;;;;;;;;;;5052768;28;20075;-86
2024/01/07 11:41:05;;;;;;;218.43;136.40;;;;;;;;;;5053428;28;20027;-84
2024/01/07 11:43:31;;;;;;;304.40;177.50;;;;;;;;;;5050011;28;20031;-85
2024/01/07 11:45:56;;;;;;;271.58;150.68;;;;;;;;;;5055564;28;20021;-86
2024/01/07 11:48:21;;;;;;;355.48;241.00;;;;;;;;;;5051411;28;20020;-87
2024/01/07 11:50:47;;;;;;;266.63;171.63;;;;;;;;;;5052559;28;20390;-86
2024/01/07 11:53:12;;;;;;;416.35;258.08;;;;;;;;;;5050643;28;20086;-88
2024/01/07 11:55:38;;;;;;;287.45;184.75;;;;;;;;;;5052183;28;20498;-86
2024/01/07 11:58:03;;;;;;;351.42;211.13;;;;;;;;;;5050156;28;20064;-86
2024/01/07 12:00:35;;;;;;;253.98;157.02;;;;;;;;;;5053419;28;20502;-88
2024/01/07 12:03:03;;;;;;;197.23;129.18;;;;;;;;;;5041528;28;20068;-87
2024/01/07 12:05:29;;;;;;;224.55;143.27;;;;;;;;;;5031048;28;20021;-88
2024/01/07 12:07:54;;;;;;;128.90;87.68;;;;;;;;;;5014473;28;20396;-88
2024/01/07 12:10:20;;;;;;;151.10;104.88;;;;;;;;;;5048265;28;20068;-88
2024/01/07 12:12:46;;;;;;;178.90;113.00;;;;;;;;;;5047299;28;20028;-88
2024/01/07 12:15:12;;;;;;;126.68;89.13;;;;;;;;;;5048870;28;20028;-87
2024/01/07 12:17:40;;;;;;;212.02;131.45;;;;;;;;;;5049114;28;20506;-88
2024/01/07 12:20:07;;;;;;;116.03;82.80;;;;;;;;;;5045905;28;20013;-88
2024/01/07 12:22:32;;;;;;;127.57;85.78;;;;;;;;;;5042034;28;20032;-88
2024/01/07 12:25:02;;;;;;;180.95;120.70;;;;;;;;;;5047138;28;20021;-87
2024/01/07 12:27:28;;;;;;;109.13;78.78;;;;;;;;;;5048255;28;20087;-87
2024/01/07 12:29:56;;;;;;;112.97;83.13;;;;;;;;;;5047501;28;20032;-88
2024/01/07 12:32:22;;;;;;;104.95;76.55;;;;;;;;;;5047009;28;20024;-87
2024/01/07 12:34:47;;;;;;;126.43;92.93;;;;;;;;;;5046335;28;20083;-86
2024/01/07 12:37:13;;;;;;;119.28;85.70;;;;;;;;;;5048354;28;20035;-90
2024/01/07 12:39:39;;;;;;;106.78;80.05;;;;;;;;;;5048114;28;20028;-89
2024/01/07 12:42:04;;;;;;;126.60;94.82;;;;;;;;;;5031851;28;20380;-87
2024/01/07 12:44:29;;;;;;;110.05;84.47;;;;;;;;;;5043113;28;20036;-89
2024/01/07 12:46:55;;;;;;;94.13;74.57;;;;;;;;;;5045745;28;20021;-88
2024/01/07 12:49:21;;;;;;;95.78;75.78;;;;;;;;;;5054584;28;20020;-87
2024/01/07 12:51:47;;;;;;;90.13;70.57;;;;;;;;;;5059240;28;20025;-89
2024/01/07 12:54:12;;;;;;;74.97;61.13;;;;;;;;;;5053806;28;20024;-89
2024/01/07 12:56:37;;;;;;;73.60;63.13;;;;;;;;;;5052261;28;20025;-90
2024/01/07 12:59:03;;;;;;;65.22;51.72;;;;;;;;;;5035116;28;20098;-87
2024/01/07 13:01:29;;;;;;;89.50;63.70;;;;;;;;;;5046628;28;20132;-90
2024/01/07 13:03:54;;;;;;;98.10;68.65;;;;;;;;;;5051336;28;20017;-91
2024/01/07 13:06:19;;;;;;;56.65;50.45;;;;;;;;;;5053970;28;20027;-89
2024/01/07 13:08:44;;;;;;;52.60;44.85;;;;;;;;;;5059457;28;20027;-89
2024/01/07 13:11:13;;;;;;;55.05;47.33;;;;;;;;;;5053138;28;20013;-90
2024/01/07 13:13:39;;;;;;;50.88;44.92;;;;;;;;;;5044484;28;20036;-89
2024/01/07 13:16:04;;;;;;;65.43;54.35;;;;;;;;;;5052626;28;20052;-89
2024/01/07 13:18:29;;;;;;;79.40;65.30;;;;;;;;;;5055292;28;20029;-89
2024/01/07 13:20:55;;;;;;;43.40;38.67;;;;;;;;;;5050519;28;20059;-89
2024/01/07 13:23:20;;;;;;;40.47;36.00;;;;;;;;;;5045096;28;20490;-88
2024/01/07 13:25:47;;;;;;;43.60;36.92;;;;;;;;;;5045872;28;20044;-88
2024/01/07 13:28:12;;;;;;;44.00;38.35;;;;;;;;;;5045847;28;20032;-89
2024/01/07 13:30:40;;;;;;;42.85;37.03;;;;;;;;;;5042260;28;20024;-88
2024/01/07 13:33:05;;;;;;;54.80;44.90;;;;;;;;;;5046108;28;20598;-90
2024/01/07 13:35:30;;;;;;;56.20;44.28;;;;;;;;;;5042185;28;20067;-88
2024/01/07 13:37:55;;;;;;;54.13;45.72;;;;;;;;;;5042762;28;20762;-87
2024/01/07 13:40:21;;;;;;;56.53;46.13;;;;;;;;;;5041889;28;20023;-88
2024/01/07 13:42:50;;;;;;;53.38;43.97;;;;;;;;;;5017493;28;20155;-89
2024/01/07 13:45:16;;;;;;;52.75;44.67;;;;;;;;;;5041999;28;20028;-88
2024/01/07 13:47:41;;;;;;;52.60;43.45;;;;;;;;;;5041798;28;20203;-88
2024/01/07 13:50:09;;;;;;;53.55;41.80;;;;;;;;;;5042172;28;20021;-88
2024/01/07 13:52:34;;;;;;;60.92;45.65;;;;;;;;;;5041325;28;20021;-86